createdAt,value
2018-07-21T00:01:13.470Z,21.70
2018-07-21T00:03:42.961Z,22.20
2018-07-21T00:06:12.121Z,22.30
2018-07-21T00:08:41.525Z,22.10
2018-07-21T00:11:10.842Z,22.40
2018-07-21T00:13:40.158Z,22.50
2018-07-21T00:16:09.674Z,22.40
2018-07-21T00:18:38.938Z,22.30
2018-07-21T00:21:08.782Z,22.20
2018-07-21T00:23:38.608Z,22.10
2018-07-21T00:26:08.101Z,23.00
2018-07-21T00:28:37.563Z,22.90
2018-07-21T00:31:07.306Z,23.10
2018-07-21T00:33:36.910Z,22.80
2018-07-21T00:36:06.613Z,22.20
2018-07-21T00:38:35.948Z,21.80
2018-07-21T00:41:05.541Z,21.60
2018-07-21T00:43:34.939Z,21.40
2018-07-21T00:46:04.583Z,21.40
2018-07-21T00:48:33.980Z,21.30
2018-07-21T00:51:03.354Z,21.20
2018-07-21T00:53:32.894Z,21.20
2018-07-21T00:56:03.493Z,21.10
2018-07-21T00:58:33.072Z,21.00
2018-07-21T01:01:02.584Z,20.90
2018-07-21T01:03:32.280Z,20.90
2018-07-21T01:06:01.730Z,20.90
2018-07-21T01:08:31.200Z,20.80
2018-07-21T01:11:00.718Z,20.80
2018-07-21T01:13:30.282Z,20.70
2018-07-21T01:15:59.780Z,20.50
2018-07-21T01:18:30.038Z,20.60
2018-07-21T01:20:59.642Z,21.10
2018-07-21T01:23:29.124Z,21.00
2018-07-21T01:25:58.527Z,20.80
2018-07-21T01:28:28.357Z,20.70
2018-07-21T01:30:57.560Z,20.80
2018-07-21T01:33:26.890Z,21.30
2018-07-21T01:35:56.256Z,21.20
2018-07-21T01:38:25.669Z,20.80
2018-07-21T01:40:54.959Z,20.60
2018-07-21T01:43:24.750Z,20.60
2018-07-21T01:45:54.179Z,20.60
2018-07-21T01:48:23.839Z,20.50
2018-07-21T01:50:53.443Z,20.50
2018-07-21T01:53:23.020Z,20.40
2018-07-21T01:55:53.250Z,20.30
2018-07-21T01:58:22.979Z,20.30
2018-07-21T02:00:52.681Z,20.80
2018-07-21T02:03:22.181Z,20.50
2018-07-21T02:05:51.583Z,20.60
2018-07-21T02:08:21.169Z,20.40
2018-07-21T02:10:51.276Z,20.40
2018-07-21T02:13:20.486Z,20.20
2018-07-21T02:15:50.119Z,20.10
2018-07-21T02:18:20.210Z,20.20
2018-07-21T02:20:49.828Z,20.10
2018-07-21T02:23:19.195Z,20.10
2018-07-21T02:25:48.865Z,20.00
2018-07-21T02:28:18.161Z,19.80
2018-07-21T02:30:47.284Z,19.90
2018-07-21T02:33:17.033Z,19.70
2018-07-21T02:35:46.727Z,19.90
2018-07-21T02:38:16.303Z,19.70
2018-07-21T02:40:45.660Z,19.40
2018-07-21T02:43:14.945Z,19.40
2018-07-21T02:45:44.482Z,19.50
2018-07-21T02:48:13.734Z,19.50
2018-07-21T02:50:43.340Z,19.40
2018-07-21T02:53:12.919Z,19.30
2018-07-21T02:55:42.522Z,19.30
2018-07-21T02:58:11.966Z,19.30
2018-07-21T03:00:42.314Z,19.30
2018-07-21T03:03:12.120Z,19.30
2018-07-21T03:05:41.570Z,19.30
2018-07-21T03:08:10.994Z,19.30
2018-07-21T03:10:40.899Z,19.40
2018-07-21T03:13:10.260Z,19.30
2018-07-21T03:15:39.860Z,19.40
2018-07-21T03:18:10.310Z,19.40
2018-07-21T03:20:39.607Z,19.30
2018-07-21T03:23:09.029Z,19.40
2018-07-21T03:25:38.542Z,19.40
2018-07-21T03:28:07.955Z,19.40
2018-07-21T03:30:37.732Z,19.40
2018-07-21T03:33:07.258Z,19.40
2018-07-21T03:35:36.732Z,19.40
2018-07-21T03:38:06.199Z,19.40
2018-07-21T03:40:35.855Z,19.50
2018-07-21T03:43:05.408Z,19.50
2018-07-21T03:45:34.863Z,19.50
2018-07-21T03:48:04.638Z,19.40
2018-07-21T03:50:34.381Z,19.50
2018-07-21T03:53:04.524Z,19.50
2018-07-21T03:55:34.161Z,19.50
2018-07-21T03:58:03.563Z,19.60
2018-07-21T04:00:33.081Z,19.50
2018-07-21T04:03:02.460Z,19.60
2018-07-21T04:05:31.891Z,19.50
2018-07-21T04:08:01.432Z,19.60
2018-07-21T04:10:31.137Z,19.60
2018-07-21T04:13:00.858Z,19.60
2018-07-21T04:15:30.469Z,19.60
2018-07-21T04:17:59.979Z,19.70
2018-07-21T04:20:29.293Z,19.70
2018-07-21T04:22:58.565Z,19.80
2018-07-21T04:25:28.138Z,19.70
2018-07-21T04:27:57.283Z,19.80
2018-07-21T04:30:26.910Z,19.70
2018-07-21T04:32:56.575Z,19.60
2018-07-21T04:35:26.226Z,19.70
2018-07-21T04:38:02.542Z,19.70
2018-07-21T04:40:32.166Z,19.80
2018-07-21T04:43:01.717Z,19.70
2018-07-21T04:45:31.199Z,19.70
2018-07-21T04:48:00.760Z,19.70
2018-07-21T04:52:59.123Z,19.70
2018-07-21T04:55:28.626Z,19.70
2018-07-21T04:57:57.910Z,19.80
2018-07-21T05:00:27.013Z,19.80
2018-07-21T05:02:56.232Z,19.80
2018-07-21T05:05:25.587Z,19.90
2018-07-21T05:07:55.039Z,19.80
2018-07-21T05:10:24.528Z,19.80
2018-07-21T05:12:53.780Z,19.80
2018-07-21T05:15:23.261Z,19.80
2018-07-21T05:17:52.668Z,19.90
2018-07-21T05:20:22.149Z,20.00
2018-07-21T05:22:51.648Z,20.10
2018-07-21T05:25:21.249Z,20.00
2018-07-21T05:27:51.110Z,20.00
2018-07-21T05:30:20.723Z,19.90
2018-07-21T05:32:50.127Z,20.00
2018-07-21T05:35:19.763Z,20.00
2018-07-21T05:37:49.399Z,20.10
2018-07-21T05:40:18.518Z,20.10
2018-07-21T05:42:48.038Z,20.10
2018-07-21T05:45:17.151Z,20.10
2018-07-21T05:47:46.592Z,20.10
2018-07-21T05:50:16.279Z,20.10
2018-07-21T05:52:45.657Z,20.10
2018-07-21T05:55:15.469Z,20.10
2018-07-21T05:57:45.018Z,20.10
2018-07-21T06:00:14.583Z,20.20
2018-07-21T06:02:44.775Z,20.10
2018-07-21T06:05:14.150Z,20.20
2018-07-21T06:07:44.051Z,20.20
2018-07-21T06:10:13.458Z,20.20
2018-07-21T06:12:42.812Z,20.20
2018-07-21T06:15:12.763Z,20.10
2018-07-21T06:17:42.028Z,20.10
2018-07-21T06:20:11.734Z,20.10
2018-07-21T06:22:41.094Z,20.00
2018-07-21T06:25:10.568Z,20.10
2018-07-21T06:27:40.000Z,20.10
2018-07-21T06:30:09.427Z,20.10
2018-07-21T06:32:38.955Z,20.00
2018-07-21T06:35:08.677Z,20.00
2018-07-21T06:37:38.021Z,19.90
2018-07-21T06:40:07.471Z,19.90
2018-07-21T06:42:37.002Z,19.80
2018-07-21T06:45:06.693Z,19.90
2018-07-21T06:47:35.872Z,19.90
2018-07-21T06:50:05.967Z,19.90
2018-07-21T06:52:35.683Z,19.90
2018-07-21T06:55:05.820Z,20.00
2018-07-21T06:57:35.446Z,20.00
2018-07-21T07:00:05.532Z,20.10
2018-07-21T07:02:34.868Z,20.10
2018-07-21T07:05:04.434Z,20.10
2018-07-21T07:07:33.878Z,20.10
2018-07-21T07:10:03.478Z,20.10
2018-07-21T07:12:33.110Z,20.10
2018-07-21T07:15:02.562Z,20.10
2018-07-21T07:17:31.988Z,20.10
2018-07-21T07:20:01.773Z,20.10
2018-07-21T07:22:31.240Z,20.20
2018-07-21T07:25:00.768Z,20.20
2018-07-21T07:27:30.200Z,20.20
2018-07-21T07:29:59.640Z,20.10
2018-07-21T07:32:29.110Z,20.20
2018-07-21T07:34:59.259Z,20.20
2018-07-21T07:37:28.556Z,20.30
2018-07-21T07:39:58.325Z,20.30
2018-07-21T07:42:27.722Z,20.30
2018-07-21T07:44:57.255Z,20.30
2018-07-21T07:47:26.960Z,20.20
2018-07-21T07:49:56.116Z,20.20
2018-07-21T07:52:25.416Z,20.20
2018-07-21T07:54:54.637Z,20.20
2018-07-21T07:57:24.030Z,20.30
2018-07-21T07:59:53.662Z,20.40
2018-07-21T08:02:24.442Z,20.40
2018-07-21T08:07:23.462Z,20.40
2018-07-21T08:09:52.791Z,20.40
2018-07-21T08:12:22.288Z,20.50
2018-07-21T08:14:51.873Z,20.50
2018-07-21T08:17:21.174Z,20.80
2018-07-21T08:19:50.661Z,20.90
2018-07-21T08:22:20.109Z,20.70
2018-07-21T08:24:49.441Z,20.50
2018-07-21T08:27:19.314Z,20.60
2018-07-21T08:29:48.642Z,20.70
2018-07-21T08:32:17.891Z,21.00
2018-07-21T08:34:47.342Z,21.00
2018-07-21T08:37:16.829Z,21.00
2018-07-21T08:39:46.141Z,21.00
2018-07-21T08:42:15.474Z,21.10
2018-07-21T08:44:44.947Z,21.10
2018-07-21T08:47:14.310Z,21.20
2018-07-21T08:49:43.642Z,21.00
2018-07-21T08:52:13.970Z,21.10
2018-07-21T08:54:43.143Z,21.60
2018-07-21T08:57:12.326Z,22.20
2018-07-21T08:59:41.690Z,22.20
2018-07-21T09:02:11.301Z,22.10
2018-07-21T09:04:41.813Z,21.90
2018-07-21T09:07:11.309Z,21.70
2018-07-21T09:09:40.799Z,21.90
2018-07-21T09:12:10.510Z,22.00
2018-07-21T09:14:40.039Z,21.80
2018-07-21T09:17:09.391Z,21.60
2018-07-21T09:19:38.728Z,21.90
2018-07-21T09:22:07.838Z,21.90
2018-07-21T09:24:38.332Z,21.80
2018-07-21T09:27:07.452Z,21.80
2018-07-21T09:29:37.232Z,22.00
2018-07-21T09:32:06.674Z,21.90
2018-07-21T09:34:36.071Z,21.80
2018-07-21T09:37:05.451Z,21.80
2018-07-21T09:39:35.511Z,22.00
2018-07-21T09:42:05.036Z,21.90
2018-07-21T09:44:34.379Z,22.00
2018-07-21T09:47:04.745Z,22.40
2018-07-21T09:49:34.557Z,22.70
2018-07-21T09:52:04.233Z,22.80
2018-07-21T09:54:33.660Z,22.80
2018-07-21T09:57:02.829Z,23.00
2018-07-21T09:59:32.124Z,23.20
2018-07-21T10:02:01.622Z,23.40
2018-07-21T10:04:31.920Z,23.50
2018-07-21T10:07:00.981Z,23.40
2018-07-21T10:09:30.341Z,23.40
2018-07-21T10:11:59.878Z,23.30
2018-07-21T10:14:29.398Z,23.60
2018-07-21T10:16:58.729Z,23.80
2018-07-21T10:19:28.381Z,23.50
2018-07-21T10:21:58.026Z,23.70
2018-07-21T10:24:32.521Z,23.60
2018-07-21T10:27:08.075Z,23.30
2018-07-21T10:29:38.654Z,23.30
2018-07-21T10:32:08.788Z,23.70
2018-07-21T10:34:37.987Z,23.90
2018-07-21T10:37:07.397Z,23.90
2018-07-21T10:39:36.797Z,23.80
2018-07-21T10:42:06.348Z,23.70
2018-07-21T10:44:35.981Z,23.60
2018-07-21T10:47:05.271Z,23.70
2018-07-21T10:49:34.700Z,23.60
2018-07-21T10:52:03.884Z,23.80
2018-07-21T10:54:34.140Z,24.30
2018-07-21T10:57:03.824Z,24.60
2018-07-21T10:59:33.690Z,24.70
2018-07-21T11:02:03.797Z,24.40
2018-07-21T11:04:33.022Z,25.30
2018-07-21T11:07:02.239Z,25.20
2018-07-21T11:09:31.570Z,25.00
2018-07-21T11:12:00.995Z,25.20
2018-07-21T11:14:30.455Z,24.90
2018-07-21T11:16:59.719Z,24.90
2018-07-21T11:19:29.554Z,25.30
2018-07-21T11:21:59.032Z,25.10
2018-07-21T11:24:28.458Z,25.20
2018-07-21T11:26:58.075Z,25.30
2018-07-21T11:29:27.341Z,25.40
2018-07-21T11:31:58.199Z,26.10
2018-07-21T11:34:27.627Z,26.30
2018-07-21T11:36:57.272Z,26.50
2018-07-21T11:39:27.046Z,26.40
2018-07-21T11:41:56.284Z,26.30
2018-07-21T11:44:25.757Z,25.90
2018-07-21T11:46:55.363Z,25.90
2018-07-21T11:49:24.930Z,25.30
2018-07-21T11:51:54.514Z,25.00
2018-07-21T11:54:23.684Z,25.00
2018-07-21T11:59:25.968Z,26.10
2018-07-21T12:01:55.322Z,26.50
2018-07-21T12:04:25.346Z,26.50
2018-07-21T12:06:54.800Z,26.40
2018-07-21T12:09:24.495Z,26.20
2018-07-21T12:11:53.664Z,25.70
2018-07-21T12:14:23.330Z,25.70
2018-07-21T12:16:53.577Z,25.60
2018-07-21T12:19:22.811Z,25.80
2018-07-21T12:21:52.061Z,26.00
2018-07-21T12:24:21.550Z,26.50
2018-07-21T12:26:51.181Z,26.80
2018-07-21T12:29:20.582Z,26.60
2018-07-21T12:31:50.002Z,26.40
2018-07-21T12:34:20.572Z,26.60
2018-07-21T12:36:50.106Z,25.90
2018-07-21T12:39:19.775Z,25.40
2018-07-21T12:41:49.331Z,25.70
2018-07-21T12:44:18.365Z,25.90
2018-07-21T12:46:47.791Z,25.70
2018-07-21T12:49:17.102Z,26.20
2018-07-21T12:51:46.328Z,26.40
2018-07-21T12:54:16.027Z,26.80
2018-07-21T12:56:45.553Z,26.50
2018-07-21T12:59:15.103Z,26.20
2018-07-21T13:01:44.282Z,26.00
2018-07-21T13:04:14.923Z,25.90
2018-07-21T13:09:13.728Z,26.00
2018-07-21T13:11:43.355Z,26.00
2018-07-21T13:14:13.091Z,26.20
2018-07-21T13:16:42.641Z,26.30
2018-07-21T13:19:12.262Z,26.60
2018-07-21T13:21:41.826Z,26.70
2018-07-21T13:24:11.305Z,27.00
2018-07-21T13:26:40.821Z,26.60
2018-07-21T13:29:10.229Z,25.80
2018-07-21T13:31:39.573Z,25.50
2018-07-21T13:34:08.918Z,25.70
2018-07-21T13:36:38.422Z,26.60
2018-07-21T13:39:10.199Z,27.20
2018-07-21T13:41:39.860Z,27.60
2018-07-21T13:44:09.821Z,27.70
2018-07-21T13:46:39.329Z,27.60
2018-07-21T13:49:08.658Z,28.00
2018-07-21T13:54:07.016Z,28.50
2018-07-21T13:56:36.131Z,28.60
2018-07-21T13:59:05.622Z,28.40
2018-07-21T14:01:35.400Z,28.70
2018-07-21T14:04:04.795Z,28.80
2018-07-21T14:06:34.403Z,28.50
2018-07-21T14:09:04.978Z,28.20
2018-07-21T14:11:34.621Z,27.90
2018-07-21T14:14:03.879Z,27.20
2018-07-21T14:16:33.319Z,27.10
2018-07-21T14:19:02.998Z,26.90
2018-07-21T14:21:33.251Z,26.30
2018-07-21T14:24:02.668Z,26.70
2018-07-21T14:26:32.247Z,26.00
2018-07-21T14:29:02.330Z,25.50
2018-07-21T14:31:32.359Z,25.40
2018-07-21T14:34:01.980Z,25.50
2018-07-21T14:36:31.673Z,25.80
2018-07-21T14:39:01.063Z,26.30
2018-07-21T14:41:30.608Z,26.50
2018-07-21T14:44:00.121Z,26.30
2018-07-21T14:48:58.251Z,26.50
2018-07-21T14:51:28.034Z,26.20
2018-07-21T14:53:57.700Z,26.30
2018-07-21T14:56:27.040Z,26.50
2018-07-21T14:58:56.730Z,26.30
2018-07-21T15:03:55.265Z,26.60
2018-07-21T15:06:25.034Z,26.80
2018-07-21T15:08:54.460Z,26.70
2018-07-21T15:11:23.985Z,26.70
2018-07-21T15:13:53.256Z,26.60
2018-07-21T15:16:22.572Z,26.60
2018-07-21T15:18:51.874Z,26.40
2018-07-21T15:21:22.255Z,26.10
2018-07-21T15:23:51.786Z,26.10
2018-07-21T15:26:21.276Z,25.90
2018-07-21T15:28:50.588Z,25.90
2018-07-21T15:31:20.060Z,25.80
2018-07-21T15:33:49.711Z,26.10
2018-07-21T15:36:19.288Z,26.10
2018-07-21T15:38:48.894Z,26.20
2018-07-21T15:41:18.913Z,26.20
2018-07-21T15:43:48.463Z,26.40
2018-07-21T15:46:18.149Z,26.60
2018-07-21T15:48:47.920Z,26.60
2018-07-21T15:51:17.481Z,26.60
2018-07-21T15:53:46.839Z,27.00
2018-07-21T15:56:16.452Z,27.00
2018-07-21T15:58:45.918Z,26.70
2018-07-21T16:01:15.100Z,26.80
2018-07-21T16:03:44.701Z,26.80
2018-07-21T16:06:14.207Z,26.90
2018-07-21T16:08:43.661Z,26.90
2018-07-21T16:11:13.051Z,26.80
2018-07-21T16:13:42.760Z,26.80
2018-07-21T16:16:12.455Z,26.70
2018-07-21T16:18:41.892Z,26.80
2018-07-21T16:23:40.851Z,26.90
2018-07-21T16:26:10.346Z,26.80
2018-07-21T16:28:40.056Z,26.90
2018-07-21T16:31:09.701Z,27.10
2018-07-21T16:33:39.002Z,26.90
2018-07-21T16:36:08.603Z,26.80
2018-07-21T16:38:39.329Z,26.60
2018-07-21T16:41:08.940Z,26.60
2018-07-21T16:43:38.549Z,26.40
2018-07-21T16:46:07.946Z,26.40
2018-07-21T16:48:37.460Z,26.60
2018-07-21T16:51:07.356Z,26.50
2018-07-21T16:53:36.916Z,26.60
2018-07-21T16:56:06.866Z,26.50
2018-07-21T16:58:36.266Z,26.60
2018-07-21T17:01:05.477Z,26.30
2018-07-21T17:03:34.760Z,26.30
2018-07-21T17:06:04.847Z,26.50
2018-07-21T17:08:35.618Z,26.30
2018-07-21T17:11:06.448Z,26.10
2018-07-21T17:13:38.032Z,25.90
2018-07-21T17:16:07.474Z,25.80
2018-07-21T17:18:36.860Z,26.00
2018-07-21T17:21:06.508Z,26.00
2018-07-21T17:23:36.648Z,25.80
2018-07-21T17:26:06.172Z,25.80
2018-07-21T17:28:35.562Z,26.00
2018-07-21T17:31:04.726Z,26.00
2018-07-21T17:33:34.176Z,25.90
2018-07-21T17:36:03.321Z,25.80
2018-07-21T17:38:32.735Z,25.80
2018-07-21T17:41:01.943Z,25.90
2018-07-21T17:43:31.159Z,25.90
2018-07-21T17:46:00.780Z,25.90
2018-07-21T17:48:30.442Z,25.80
2018-07-21T17:51:00.559Z,25.80
2018-07-21T17:53:29.872Z,25.70
2018-07-21T17:55:59.272Z,25.40
2018-07-21T17:58:28.494Z,25.50
2018-07-21T18:00:57.870Z,25.60
2018-07-21T18:03:27.515Z,25.40
2018-07-21T18:05:57.341Z,25.50
2018-07-21T18:08:26.508Z,25.30
2018-07-21T18:10:56.023Z,25.20
2018-07-21T18:13:25.538Z,25.10
2018-07-21T18:15:55.346Z,25.10
2018-07-21T18:18:24.834Z,24.90
2018-07-21T18:20:55.139Z,24.80
2018-07-21T18:23:24.456Z,24.70
2018-07-21T18:25:54.066Z,24.80
2018-07-21T18:28:23.466Z,24.80
2018-07-21T18:30:53.086Z,24.80
2018-07-21T18:33:22.536Z,24.80
2018-07-21T18:35:51.826Z,24.70
2018-07-21T18:38:21.103Z,24.60
2018-07-21T18:40:50.447Z,24.60
2018-07-21T18:43:19.999Z,24.50
2018-07-21T18:45:50.320Z,24.50
2018-07-21T18:48:20.015Z,24.50
2018-07-21T18:50:49.550Z,24.40
2018-07-21T18:53:18.805Z,24.10
2018-07-21T18:55:48.380Z,24.10
2018-07-21T18:58:17.913Z,24.00
2018-07-21T19:00:47.051Z,24.00
2018-07-21T19:03:16.797Z,24.00
2018-07-21T19:05:46.245Z,24.00
2018-07-21T19:08:20.675Z,23.90
2018-07-21T19:10:50.496Z,23.80
2018-07-21T19:13:19.984Z,23.70
2018-07-21T19:15:54.258Z,23.80
2018-07-21T19:18:23.949Z,23.90
2018-07-21T19:20:58.361Z,23.90
2018-07-21T19:23:27.838Z,24.20
2018-07-21T19:26:03.196Z,24.30
2018-07-21T19:28:33.026Z,24.20
2018-07-21T19:31:02.248Z,23.90
2018-07-21T19:33:31.880Z,23.70
2018-07-21T19:36:01.645Z,23.50
2018-07-21T19:38:31.005Z,23.40
2018-07-21T19:41:04.793Z,23.30
2018-07-21T19:43:34.319Z,23.20
2018-07-21T19:46:03.939Z,23.20
2018-07-21T19:51:02.471Z,23.10
2018-07-21T19:53:32.509Z,23.10
2018-07-21T19:56:01.838Z,23.20
2018-07-21T19:58:31.279Z,22.90
2018-07-21T20:01:00.767Z,22.80
2018-07-21T20:03:30.849Z,22.80
2018-07-21T20:06:00.640Z,22.40
2018-07-21T20:08:30.051Z,22.40
2018-07-21T20:10:59.744Z,22.70
2018-07-21T20:13:29.209Z,22.90
2018-07-21T20:15:59.486Z,22.80
2018-07-21T20:18:28.847Z,22.80
2018-07-21T20:20:58.345Z,22.40
2018-07-21T20:23:27.918Z,22.20
2018-07-21T20:25:58.204Z,22.40
2018-07-21T20:28:27.922Z,21.70
2018-07-21T20:30:57.311Z,21.60
2018-07-21T20:33:26.857Z,21.20
2018-07-21T20:35:56.367Z,21.30
2018-07-21T20:38:26.844Z,21.60
2018-07-21T20:40:56.535Z,22.00
2018-07-21T20:43:25.978Z,22.10
2018-07-21T20:45:55.919Z,22.50
2018-07-21T20:48:25.790Z,22.70
2018-07-21T20:50:55.336Z,22.70
2018-07-21T20:53:24.870Z,22.00
2018-07-21T20:55:54.528Z,21.50
2018-07-21T20:58:24.135Z,20.90
2018-07-21T21:00:54.030Z,21.00
2018-07-21T21:03:23.228Z,21.10
2018-07-21T21:05:52.547Z,20.80
2018-07-21T21:08:21.975Z,20.90
2018-07-21T21:10:51.977Z,21.00
2018-07-21T21:13:21.648Z,21.20
2018-07-21T21:15:51.215Z,21.10
2018-07-21T21:18:20.626Z,21.20
2018-07-21T21:20:50.481Z,21.10
2018-07-21T21:23:20.118Z,21.00
2018-07-21T21:25:49.627Z,21.30
2018-07-21T21:28:18.963Z,21.60
2018-07-21T21:30:48.528Z,21.40
2018-07-21T21:33:18.189Z,21.40
2018-07-21T21:35:47.649Z,21.30
2018-07-21T21:38:17.361Z,21.30
2018-07-21T21:40:46.829Z,21.60
2018-07-21T21:43:17.460Z,21.50
2018-07-21T21:45:47.247Z,21.50
2018-07-21T21:48:16.747Z,21.40
2018-07-21T21:50:46.055Z,21.40
2018-07-21T21:53:15.407Z,21.50
2018-07-21T21:55:45.128Z,21.50
2018-07-21T21:58:14.556Z,21.40
2018-07-21T22:00:59.958Z,21.20
2018-07-21T22:03:31.010Z,20.90
2018-07-21T22:06:01.286Z,20.60
2018-07-21T22:08:31.767Z,20.40
2018-07-21T22:11:02.006Z,21.00
2018-07-21T22:13:31.695Z,21.00
2018-07-21T22:16:01.348Z,20.80
2018-07-21T22:18:31.967Z,20.70
2018-07-21T22:21:01.247Z,20.60
2018-07-21T22:23:30.776Z,20.50
2018-07-21T22:26:00.259Z,20.30
2018-07-21T22:28:29.844Z,20.30
2018-07-21T22:30:59.386Z,20.30
2018-07-21T22:33:29.318Z,20.30
2018-07-21T22:35:58.899Z,20.30
2018-07-21T22:38:28.294Z,20.30
2018-07-21T22:40:57.689Z,20.30
2018-07-21T22:45:56.319Z,20.00
2018-07-21T22:48:25.640Z,20.10
2018-07-21T22:50:55.019Z,20.10
2018-07-21T22:53:24.603Z,20.20
2018-07-21T22:55:53.872Z,20.10
2018-07-21T22:58:23.500Z,20.00
2018-07-21T23:00:52.933Z,20.10
2018-07-21T23:03:22.471Z,20.00
2018-07-21T23:05:52.222Z,20.00
2018-07-21T23:08:21.595Z,20.10
2018-07-21T23:10:50.855Z,20.10
2018-07-21T23:13:20.341Z,20.10
2018-07-21T23:15:49.720Z,20.00
2018-07-21T23:18:19.539Z,20.00
2018-07-21T23:20:48.593Z,20.00
2018-07-21T23:23:18.154Z,20.10
2018-07-21T23:25:47.828Z,20.10
2018-07-21T23:28:17.281Z,20.10
2018-07-21T23:30:46.715Z,20.10
2018-07-21T23:33:16.268Z,20.00
2018-07-21T23:35:45.830Z,20.00
2018-07-21T23:38:15.233Z,20.00
2018-07-21T23:40:44.560Z,20.00
2018-07-21T23:43:13.947Z,20.00
2018-07-21T23:45:43.544Z,20.00
2018-07-21T23:48:13.019Z,20.00
2018-07-21T23:50:42.615Z,19.90
2018-07-21T23:55:41.180Z,19.90
2018-07-21T23:58:10.576Z,19.80
